Friday, November 17, 2017, 4:24 PM EST
Back to Local

KMSV, Monticello, Sullivan County International Airport

Location: Swan Lake, NY, United States Lat: 41.7
Local Time: 4:24 PM EST (21:24 GMT) Lon: -74.8
Time Zone: US/Eastern Elev: 1404 ft

Show me the last for .
Show Decoded

2017-11-17 15:56 METAR KMSV 172056Z AUTO 31009G19KT 10SM CLR 02/M09 A3008 RMK AO2 SLP202
                 T00221094 53009 FZRANO =
2017-11-17 14:56 METAR KMSV 171956Z AUTO 28010G15KT 260V320 10SM CLR 03/M09 A3007 RMK AO2 SLP194
                 T00331089 =
2017-11-17 13:56 METAR KMSV 171856Z AUTO 29011G17KT 10SM CLR 03/M08 A3006 RMK AO2 SLP190
                 T00331083 =
2017-11-17 12:56 METAR KMSV 171756Z AUTO 31014G20KT 10SM CLR 03/M08 A3006 RMK AO2 SLP190 60000
                 T00281078 10028 21006 55006 =
2017-11-17 11:56 METAR KMSV 171656Z AUTO 28015G19KT 10SM CLR 02/M06 A3005 RMK AO2 SLP186
                 T00221061 FZRANO =
2017-11-17 11:25 METAR KMSV 171625Z AUTO 30008G19KT 10SM FEW027 02/M05 A3005 RMK AO2 FZRANO =
2017-11-17 10:56 METAR KMSV 171556Z AUTO 29011G18KT 10SM BKN025 BKN030 01/M05 A3006 RMK AO2 PK
                 WND 31026/1523 SLP193 T00111050 FZRANO =
2017-11-17 10:21 METAR KMSV 171521Z AUTO 32015G25KT 10SM SCT024 01/M06 A3008 RMK AO2 FZRANO =
2017-11-17 09:56 METAR KMSV 171456Z AUTO 31013G22KT 10SM BKN024 OVC031 01/M04 A3008 RMK AO2
                 SLP197 60000 T00111044 51018 FZRANO =
2017-11-17 08:56 METAR KMSV 171356Z AUTO 33015G20KT 10SM OVC022 00/M04 A3006 RMK AO2 SLP192
                 T00001039 FZRANO =
2017-11-17 07:56 METAR KMSV 171256Z AUTO 31014G23KT 10SM OVC020 M01/M04 A3004 RMK AO2 PK WND
                 31032/1219 UPE1158 SLP187 P0000 T10061039 FZRANO =
2017-11-17 06:56 METAR KMSV 171156Z AUTO 31012G21KT 9SM UP OVC020 M01/M03 A3002 RMK AO2
                 UPB32SNB41E54 SLP179 P0000 60000 70007 T10061033 10017 21006 51023 FZRANO =
2017-11-17 05:56 METAR KMSV 171056Z AUTO 31013G28KT 10SM OVC024 00/M04 A3000 RMK AO2 PK WND
                 30028/1052 UPE07B25E27SNB27E43 SLP172 P0000 T00001039 FZRANO =
2017-11-17 04:56 METAR KMSV 170956Z AUTO 30015G27KT 10SM UP OVC018 00/M03 A2997 RMK AO2 PK WND
                 31027/0954 RAE00UPB00 SLP162 P0000 T00001033 FZRANO =
2017-11-17 03:56 METAR KMSV 170856Z AUTO 30015G24KT 10SM -RA BKN024 OVC032 00/M03 A2995 RMK AO2
                 PK WND 31029/0818 RAB52 SLP153 P0000 60000 T00001033 52019 FZRANO =
2017-11-17 02:56 METAR KMSV 170756Z AUTO 31013G21KT 10SM OVC029 01/M04 A2993 RMK AO2 PK WND
                 30031/0730 UPB01E04RAB04E05SNE01 SLP146 P0000 T00061039 FZRANO =
2017-11-17 02:49 METAR KMSV 170749Z AUTO 30014G24KT 10SM OVC027 01/M04 A2993 RMK AO2 PK WND
                 30031/0730 UPB01E04RAB04E05SNE01 P0000 FZRANO =
2017-11-17 02:40 METAR KMSV 170740Z AUTO 30015G25KT 10SM BKN030 OVC036 01/M04 A2992 RMK AO2 PK
                 WND 30031/0730 UPB01E04RAB04E05SNE01 P0000 FZRANO =
2017-11-17 01:56 METAR KMSV 170656Z AUTO 30017G24KT 9SM -SN BKN025 OVC031 01/M03 A2991 RMK AO2 PK
                 WND 31029/0646 RAE32SNB32 SLP139 P0000 T00111028 FZRANO =
2017-11-17 01:38 METAR KMSV 170638Z AUTO 30014G23KT 10SM -SN BKN023 OVC031 01/M03 A2991 RMK AO2
                 PK WND 30028/0600 RAE32SNB32 P0000 FZRANO =
2017-11-17 01:31 METAR KMSV 170631Z AUTO 30013G23KT 10SM -RA SCT025 OVC032 01/M03 A2990 RMK AO2
                 PK WND 30028/0600 P0000 FZRANO =
2017-11-17 00:56 METAR KMSV 170556Z AUTO 30017G26KT 10SM -RA BKN026 OVC035 02/M03 A2989 RMK AO2
                 PK WND 30027/0530 RAB55 SLP131 P0000 60000 T00171028 10033 20017 53010 FZRANO =
2017-11-16 23:56 METAR KMSV 170456Z AUTO 29014G24KT 10SM BKN028 OVC046 02/M02 A2987 RMK AO2 PK
                 WND 28026/0400 SLP125 T00221022 400890022 FZRANO =
2017-11-16 22:56 METAR KMSV 170356Z AUTO 30017G23KT 10SM BKN024 OVC029 03/M02 A2987 RMK AO2 PK
                 WND 28029/0312 UPB08E10RAB10E23 SLP123 P0000 T00281017 TSNO =
2017-11-16 21:56 METAR KMSV 170256Z AUTO 29012G19KT 10SM OVC024 03/00 A2986 RMK AO2
                 UPB0158E07RAB07E18B35E48 SLP120 P0000 60000 T00280000 51012 =
2017-11-16 20:56 METAR KMSV 170156Z AUTO 29014G18KT 10SM BKN025 BKN030 OVC034 03/00 A2985 RMK AO2
                 SLP117 T00280000 =
2017-11-16 20:49 METAR KMSV 170149Z AUTO 29013G18KT 10SM SCT025 BKN033 OVC070 03/00 A2985 RMK AO2
                 =
2017-11-16 19:56 METAR KMSV 170056Z AUTO 29011G19KT 10SM SCT021 BKN026 OVC060 03/01 A2985 RMK AO2
                 RAB18E43 SLP116 P0000 T00280011 =
2017-11-16 19:18 METAR KMSV 170018Z AUTO 28008KT 10SM -RA BKN025 BKN031 OVC080 03/01 A2983 RMK
                 AO2 RAB18 P0000 =
2017-11-16 18:56 METAR KMSV 162356Z AUTO 29008G14KT 10SM FEW028 BKN047 OVC075 03/01 A2982 RMK AO2
                 RAB12E43 SLP109 P0000 60007 T00330011 10078 20033 51014 =
2017-11-16 17:56 METAR KMSV 162256Z AUTO 28010G15KT 10SM FEW031 03/01 A2981 RMK AO2 RAE03 SLP104
                 P0000 T00330011 =
2017-11-16 16:56 METAR KMSV 162156Z AUTO 29012G19KT 9SM -RA SCT022 BKN034 OVC050 04/02 A2979 RMK
                 AO2 RAB01 SLP098 P0001 T00390022 TSNO =
2017-11-16 16:47 METAR KMSV 162147Z AUTO 28015G20KT 10SM -RA SCT022 BKN034 04/02 A2979 RMK AO2
                 RAB01 P0001 =

Support USWX by starting your Amazon purchase here.